sensor_id;sensor_type;location;lat;lon;timestamp;P1;durP1;ratioP1;P2;durP2;ratioP2
26936;SDS011;14495;48.116;11.676;2022-09-01T00:01:35;28.13;;;16.67;;
26936;SDS011;14495;48.116;11.676;2022-09-01T00:04:05;25.80;;;14.85;;
26936;SDS011;14495;48.116;11.676;2022-09-01T00:06:33;27.23;;;15.57;;
26936;SDS011;14495;48.116;11.676;2022-09-01T00:09:00;26.63;;;15.15;;
26936;SDS011;14495;48.116;11.676;2022-09-01T00:11:30;27.58;;;15.63;;
26936;SDS011;14495;48.116;11.676;2022-09-01T00:13:56;29.70;;;16.20;;
26936;SDS011;14495;48.116;11.676;2022-09-01T00:16:22;28.33;;;15.73;;
26936;SDS011;14495;48.116;11.676;2022-09-01T00:18:49;27.83;;;15.52;;
26936;SDS011;14495;48.116;11.676;2022-09-01T00:21:16;28.98;;;15.32;;
26936;SDS011;14495;48.116;11.676;2022-09-01T00:23:43;27.25;;;15.48;;
26936;SDS011;14495;48.116;11.676;2022-09-01T00:26:09;30.08;;;16.45;;
26936;SDS011;14495;48.116;11.676;2022-09-01T00:28:36;28.92;;;16.45;;
26936;SDS011;14495;48.116;11.676;2022-09-01T00:31:02;27.52;;;15.95;;
26936;SDS011;14495;48.116;11.676;2022-09-01T00:33:30;27.38;;;16.23;;
26936;SDS011;14495;48.116;11.676;2022-09-01T00:35:56;27.88;;;15.93;;
26936;SDS011;14495;48.116;11.676;2022-09-01T00:38:21;26.88;;;16.48;;
26936;SDS011;14495;48.116;11.676;2022-09-01T00:40:46;26.60;;;16.95;;
26936;SDS011;14495;48.116;11.676;2022-09-01T00:45:38;26.25;;;15.68;;
26936;SDS011;14495;48.116;11.676;2022-09-01T00:48:05;23.35;;;14.60;;
26936;SDS011;14495;48.116;11.676;2022-09-01T00:50:31;26.90;;;15.25;;
26936;SDS011;14495;48.116;11.676;2022-09-01T00:52:56;27.58;;;14.73;;
26936;SDS011;14495;48.116;11.676;2022-09-01T00:55:24;27.15;;;15.48;;
26936;SDS011;14495;48.116;11.676;2022-09-01T00:57:53;25.50;;;14.80;;
26936;SDS011;14495;48.116;11.676;2022-09-01T01:00:23;29.58;;;15.55;;
26936;SDS011;14495;48.116;11.676;2022-09-01T01:02:51;24.73;;;14.50;;
26936;SDS011;14495;48.116;11.676;2022-09-01T01:05:20;27.63;;;15.50;;
26936;SDS011;14495;48.116;11.676;2022-09-01T01:07:47;31.42;;;16.05;;
26936;SDS011;14495;48.116;11.676;2022-09-01T01:10:14;29.33;;;15.38;;
26936;SDS011;14495;48.116;11.676;2022-09-01T01:12:42;27.42;;;15.18;;
26936;SDS011;14495;48.116;11.676;2022-09-01T01:15:09;28.45;;;15.75;;
26936;SDS011;14495;48.116;11.676;2022-09-01T01:17:36;25.42;;;15.60;;
26936;SDS011;14495;48.116;11.676;2022-09-01T01:20:03;26.17;;;14.98;;
26936;SDS011;14495;48.116;11.676;2022-09-01T01:25:53;27.33;;;15.20;;
26936;SDS011;14495;48.116;11.676;2022-09-01T01:28:23;29.63;;;16.02;;
26936;SDS011;14495;48.116;11.676;2022-09-01T01:30:56;28.20;;;15.18;;
26936;SDS011;14495;48.116;11.676;2022-09-01T01:33:40;29.20;;;15.68;;
26936;SDS011;14495;48.116;11.676;2022-09-01T01:36:13;28.77;;;16.13;;
26936;SDS011;14495;48.116;11.676;2022-09-01T01:38:43;30.15;;;15.70;;
26936;SDS011;14495;48.116;11.676;2022-09-01T01:41:11;25.30;;;14.68;;
26936;SDS011;14495;48.116;11.676;2022-09-01T01:43:38;29.90;;;16.55;;
26936;SDS011;14495;48.116;11.676;2022-09-01T01:46:05;27.35;;;15.98;;
26936;SDS011;14495;48.116;11.676;2022-09-01T01:48:33;27.00;;;15.32;;
26936;SDS011;14495;48.116;11.676;2022-09-01T01:51:02;28.65;;;15.93;;
26936;SDS011;14495;48.116;11.676;2022-09-01T01:53:28;27.85;;;16.35;;
26936;SDS011;14495;48.116;11.676;2022-09-01T01:55:54;29.73;;;16.80;;
26936;SDS011;14495;48.116;11.676;2022-09-01T01:58:21;27.17;;;15.23;;
26936;SDS011;14495;48.116;11.676;2022-09-01T02:00:49;25.30;;;14.68;;
26936;SDS011;14495;48.116;11.676;2022-09-01T02:03:18;24.05;;;14.63;;
26936;SDS011;14495;48.116;11.676;2022-09-01T02:05:47;24.42;;;14.70;;
26936;SDS011;14495;48.116;11.676;2022-09-01T02:08:14;23.70;;;13.90;;
26936;SDS011;14495;48.116;11.676;2022-09-01T02:10:45;24.88;;;14.50;;
26936;SDS011;14495;48.116;11.676;2022-09-01T02:13:13;29.25;;;15.20;;
26936;SDS011;14495;48.116;11.676;2022-09-01T02:15:45;29.00;;;14.75;;
26936;SDS011;14495;48.116;11.676;2022-09-01T02:18:14;29.73;;;14.80;;
26936;SDS011;14495;48.116;11.676;2022-09-01T02:20:42;23.55;;;14.63;;
26936;SDS011;14495;48.116;11.676;2022-09-01T02:23:11;27.90;;;14.80;;
26936;SDS011;14495;48.116;11.676;2022-09-01T02:25:40;27.25;;;15.75;;
26936;SDS011;14495;48.116;11.676;2022-09-01T02:28:08;28.77;;;15.18;;
26936;SDS011;14495;48.116;11.676;2022-09-01T02:30:36;27.13;;;15.32;;
26936;SDS011;14495;48.116;11.676;2022-09-01T02:33:05;25.55;;;15.32;;
26936;SDS011;14495;48.116;11.676;2022-09-01T02:35:33;25.65;;;15.40;;
26936;SDS011;14495;48.116;11.676;2022-09-01T02:38:02;24.70;;;14.93;;
26936;SDS011;14495;48.116;11.676;2022-09-01T02:40:31;31.92;;;16.77;;
26936;SDS011;14495;48.116;11.676;2022-09-01T02:42:58;27.63;;;15.48;;
26936;SDS011;14495;48.116;11.676;2022-09-01T02:45:27;26.00;;;15.90;;
26936;SDS011;14495;48.116;11.676;2022-09-01T02:47:53;24.83;;;15.25;;
26936;SDS011;14495;48.116;11.676;2022-09-01T02:50:21;24.20;;;15.57;;
26936;SDS011;14495;48.116;11.676;2022-09-01T02:52:49;31.23;;;15.23;;
26936;SDS011;14495;48.116;11.676;2022-09-01T02:55:16;26.88;;;15.52;;
26936;SDS011;14495;48.116;11.676;2022-09-01T02:57:46;25.48;;;15.25;;
26936;SDS011;14495;48.116;11.676;2022-09-01T03:00:15;30.00;;;16.45;;
26936;SDS011;14495;48.116;11.676;2022-09-01T03:02:47;27.30;;;15.20;;
26936;SDS011;14495;48.116;11.676;2022-09-01T03:05:17;30.90;;;17.77;;
26936;SDS011;14495;48.116;11.676;2022-09-01T03:07:49;31.80;;;16.42;;
26936;SDS011;14495;48.116;11.676;2022-09-01T03:10:21;28.55;;;14.70;;
26936;SDS011;14495;48.116;11.676;2022-09-01T03:12:51;27.77;;;15.48;;
26936;SDS011;14495;48.116;11.676;2022-09-01T03:15:17;24.52;;;15.30;;
26936;SDS011;14495;48.116;11.676;2022-09-01T03:17:42;24.10;;;14.82;;
26936;SDS011;14495;48.116;11.676;2022-09-01T03:20:08;27.48;;;15.30;;
26936;SDS011;14495;48.116;11.676;2022-09-01T03:22:33;26.05;;;14.75;;
26936;SDS011;14495;48.116;11.676;2022-09-01T03:24:59;24.27;;;14.45;;
26936;SDS011;14495;48.116;11.676;2022-09-01T03:27:24;26.85;;;15.70;;
26936;SDS011;14495;48.116;11.676;2022-09-01T03:29:49;28.15;;;13.68;;
26936;SDS011;14495;48.116;11.676;2022-09-01T03:32:15;26.15;;;15.05;;
26936;SDS011;14495;48.116;11.676;2022-09-01T03:34:40;30.60;;;17.05;;
26936;SDS011;14495;48.116;11.676;2022-09-01T03:37:06;26.90;;;14.93;;
26936;SDS011;14495;48.116;11.676;2022-09-01T03:39:32;26.45;;;15.52;;
26936;SDS011;14495;48.116;11.676;2022-09-01T03:41:57;27.65;;;16.48;;
26936;SDS011;14495;48.116;11.676;2022-09-01T03:44:24;27.42;;;16.13;;
26936;SDS011;14495;48.116;11.676;2022-09-01T03:46:49;28.42;;;16.10;;
26936;SDS011;14495;48.116;11.676;2022-09-01T03:49:16;25.73;;;14.82;;
26936;SDS011;14495;48.116;11.676;2022-09-01T03:51:47;30.27;;;16.00;;
26936;SDS011;14495;48.116;11.676;2022-09-01T03:54:12;27.73;;;15.13;;
26936;SDS011;14495;48.116;11.676;2022-09-01T03:56:38;26.23;;;16.15;;
26936;SDS011;14495;48.116;11.676;2022-09-01T03:59:05;23.13;;;13.73;;
26936;SDS011;14495;48.116;11.676;2022-09-01T04:01:31;23.35;;;13.63;;
26936;SDS011;14495;48.116;11.676;2022-09-01T04:04:02;24.00;;;14.43;;
26936;SDS011;14495;48.116;11.676;2022-09-01T04:06:28;26.20;;;13.90;;
26936;SDS011;14495;48.116;11.676;2022-09-01T04:08:54;25.40;;;14.27;;
26936;SDS011;14495;48.116;11.676;2022-09-01T04:11:20;23.40;;;14.25;;
26936;SDS011;14495;48.116;11.676;2022-09-01T04:13:48;24.73;;;14.57;;
26936;SDS011;14495;48.116;11.676;2022-09-01T04:16:22;24.08;;;14.35;;
26936;SDS011;14495;48.116;11.676;2022-09-01T04:19:09;22.80;;;13.68;;
26936;SDS011;14495;48.116;11.676;2022-09-01T04:21:49;28.00;;;15.88;;
26936;SDS011;14495;48.116;11.676;2022-09-01T04:24:16;30.65;;;16.02;;
26936;SDS011;14495;48.116;11.676;2022-09-01T04:26:43;26.77;;;15.70;;
26936;SDS011;14495;48.116;11.676;2022-09-01T04:29:12;26.40;;;15.65;;
26936;SDS011;14495;48.116;11.676;2022-09-01T04:31:37;27.92;;;16.00;;
26936;SDS011;14495;48.116;11.676;2022-09-01T04:34:04;26.15;;;14.13;;
26936;SDS011;14495;48.116;11.676;2022-09-01T04:36:37;28.73;;;16.65;;
26936;SDS011;14495;48.116;11.676;2022-09-01T04:39:10;30.63;;;16.55;;
26936;SDS011;14495;48.116;11.676;2022-09-01T04:41:37;29.73;;;16.98;;
26936;SDS011;14495;48.116;11.676;2022-09-01T04:44:10;29.15;;;15.70;;
26936;SDS011;14495;48.116;11.676;2022-09-01T04:46:38;25.92;;;15.77;;
26936;SDS011;14495;48.116;11.676;2022-09-01T04:49:06;26.63;;;15.10;;
26936;SDS011;14495;48.116;11.676;2022-09-01T04:51:39;29.30;;;16.65;;
26936;SDS011;14495;48.116;11.676;2022-09-01T04:54:05;28.58;;;16.48;;
26936;SDS011;14495;48.116;11.676;2022-09-01T04:56:35;27.35;;;16.75;;
26936;SDS011;14495;48.116;11.676;2022-09-01T04:59:01;31.38;;;16.58;;
26936;SDS011;14495;48.116;11.676;2022-09-01T05:01:31;31.73;;;16.25;;
26936;SDS011;14495;48.116;11.676;2022-09-01T05:04:07;31.52;;;17.02;;
26936;SDS011;14495;48.116;11.676;2022-09-01T05:06:33;32.92;;;17.77;;
26936;SDS011;14495;48.116;11.676;2022-09-01T05:09:03;33.28;;;17.15;;
26936;SDS011;14495;48.116;11.676;2022-09-01T05:11:28;32.28;;;17.48;;
26936;SDS011;14495;48.116;11.676;2022-09-01T05:13:55;30.58;;;16.80;;
26936;SDS011;14495;48.116;11.676;2022-09-01T05:16:21;28.90;;;17.00;;
26936;SDS011;14495;48.116;11.676;2022-09-01T05:18:49;32.05;;;17.48;;
26936;SDS011;14495;48.116;11.676;2022-09-01T05:21:19;32.53;;;16.92;;
26936;SDS011;14495;48.116;11.676;2022-09-01T05:23:46;26.67;;;14.80;;
26936;SDS011;14495;48.116;11.676;2022-09-01T05:26:16;27.27;;;15.32;;
26936;SDS011;14495;48.116;11.676;2022-09-01T05:28:48;27.98;;;14.75;;
26936;SDS011;14495;48.116;11.676;2022-09-01T05:31:17;25.33;;;15.25;;
26936;SDS011;14495;48.116;11.676;2022-09-01T05:33:44;27.45;;;15.57;;
26936;SDS011;14495;48.116;11.676;2022-09-01T05:36:12;23.25;;;13.95;;
26936;SDS011;14495;48.116;11.676;2022-09-01T05:38:39;25.40;;;13.73;;
26936;SDS011;14495;48.116;11.676;2022-09-01T05:41:06;26.42;;;13.93;;
26936;SDS011;14495;48.116;11.676;2022-09-01T05:43:34;22.50;;;12.57;;
26936;SDS011;14495;48.116;11.676;2022-09-01T05:46:01;24.02;;;12.88;;
26936;SDS011;14495;48.116;11.676;2022-09-01T05:48:31;24.30;;;12.27;;
26936;SDS011;14495;48.116;11.676;2022-09-01T05:50:59;22.85;;;12.15;;
26936;SDS011;14495;48.116;11.676;2022-09-01T05:53:28;24.65;;;12.10;;
26936;SDS011;14495;48.116;11.676;2022-09-01T05:55:55;25.45;;;12.90;;
26936;SDS011;14495;48.116;11.676;2022-09-01T05:58:22;28.58;;;14.60;;
26936;SDS011;14495;48.116;11.676;2022-09-01T06:00:50;27.75;;;13.52;;
26936;SDS011;14495;48.116;11.676;2022-09-01T06:03:18;23.83;;;13.00;;
26936;SDS011;14495;48.116;11.676;2022-09-01T06:05:46;20.92;;;11.77;;
26936;SDS011;14495;48.116;11.676;2022-09-01T06:08:16;29.15;;;13.15;;
26936;SDS011;14495;48.116;11.676;2022-09-01T06:10:43;23.75;;;13.02;;
26936;SDS011;14495;48.116;11.676;2022-09-01T06:13:09;25.08;;;12.98;;
26936;SDS011;14495;48.116;11.676;2022-09-01T06:15:38;26.67;;;12.00;;
26936;SDS011;14495;48.116;11.676;2022-09-01T06:18:07;22.52;;;12.25;;
26936;SDS011;14495;48.116;11.676;2022-09-01T06:25:39;22.98;;;11.90;;
26936;SDS011;14495;48.116;11.676;2022-09-01T06:28:10;22.33;;;11.65;;
26936;SDS011;14495;48.116;11.676;2022-09-01T06:30:37;27.73;;;13.20;;
26936;SDS011;14495;48.116;11.676;2022-09-01T06:33:02;24.83;;;12.82;;
26936;SDS011;14495;48.116;11.676;2022-09-01T06:35:33;22.00;;;11.57;;
26936;SDS011;14495;48.116;11.676;2022-09-01T06:38:01;21.05;;;12.18;;
26936;SDS011;14495;48.116;11.676;2022-09-01T06:40:27;18.63;;;10.52;;
26936;SDS011;14495;48.116;11.676;2022-09-01T06:42:53;19.17;;;10.52;;
26936;SDS011;14495;48.116;11.676;2022-09-01T06:45:19;25.45;;;12.60;;
26936;SDS011;14495;48.116;11.676;2022-09-01T06:47:47;18.27;;;11.95;;
26936;SDS011;14495;48.116;11.676;2022-09-01T06:50:15;20.52;;;10.63;;
26936;SDS011;14495;48.116;11.676;2022-09-01T06:52:44;21.75;;;12.02;;
26936;SDS011;14495;48.116;11.676;2022-09-01T06:55:11;17.13;;;10.45;;
26936;SDS011;14495;48.116;11.676;2022-09-01T06:57:38;15.43;;;9.75;;
26936;SDS011;14495;48.116;11.676;2022-09-01T07:00:06;16.20;;;10.57;;
26936;SDS011;14495;48.116;11.676;2022-09-01T07:02:43;17.38;;;10.52;;
26936;SDS011;14495;48.116;11.676;2022-09-01T07:05:09;16.63;;;9.93;;
26936;SDS011;14495;48.116;11.676;2022-09-01T07:07:35;14.20;;;9.52;;
26936;SDS011;14495;48.116;11.676;2022-09-01T07:10:02;14.73;;;9.80;;
26936;SDS011;14495;48.116;11.676;2022-09-01T07:12:28;13.00;;;8.73;;
26936;SDS011;14495;48.116;11.676;2022-09-01T07:14:54;13.90;;;9.15;;
26936;SDS011;14495;48.116;11.676;2022-09-01T07:17:21;13.60;;;8.48;;
26936;SDS011;14495;48.116;11.676;2022-09-01T07:19:48;15.70;;;9.70;;
26936;SDS011;14495;48.116;11.676;2022-09-01T07:22:13;13.32;;;8.77;;
26936;SDS011;14495;48.116;11.676;2022-09-01T07:24:39;13.48;;;9.20;;
26936;SDS011;14495;48.116;11.676;2022-09-01T07:27:04;13.52;;;8.77;;
26936;SDS011;14495;48.116;11.676;2022-09-01T07:29:29;12.38;;;8.60;;
26936;SDS011;14495;48.116;11.676;2022-09-01T07:31:55;13.43;;;8.07;;
26936;SDS011;14495;48.116;11.676;2022-09-01T07:34:20;11.52;;;7.95;;
26936;SDS011;14495;48.116;11.676;2022-09-01T07:36:46;11.35;;;7.68;;
26936;SDS011;14495;48.116;11.676;2022-09-01T07:39:12;11.75;;;7.80;;
26936;SDS011;14495;48.116;11.676;2022-09-01T07:41:38;10.98;;;7.35;;
26936;SDS011;14495;48.116;11.676;2022-09-01T07:44:06;10.63;;;7.13;;
26936;SDS011;14495;48.116;11.676;2022-09-01T07:46:36;8.90;;;6.38;;
26936;SDS011;14495;48.116;11.676;2022-09-01T07:49:01;8.20;;;6.15;;
26936;SDS011;14495;48.116;11.676;2022-09-01T07:51:28;8.85;;;6.43;;
26936;SDS011;14495;48.116;11.676;2022-09-01T07:53:54;9.57;;;7.03;;
26936;SDS011;14495;48.116;11.676;2022-09-01T07:56:21;11.50;;;6.78;;
26936;SDS011;14495;48.116;11.676;2022-09-01T07:58:48;10.48;;;5.60;;
26936;SDS011;14495;48.116;11.676;2022-09-01T08:01:16;9.75;;;6.60;;
26936;SDS011;14495;48.116;11.676;2022-09-01T08:03:47;8.23;;;6.32;;
26936;SDS011;14495;48.116;11.676;2022-09-01T08:06:17;11.95;;;6.97;;
26936;SDS011;14495;48.116;11.676;2022-09-01T08:08:44;10.75;;;6.90;;
26936;SDS011;14495;48.116;11.676;2022-09-01T08:11:14;7.60;;;5.85;;
26936;SDS011;14495;48.116;11.676;2022-09-01T08:13:46;8.55;;;5.88;;
26936;SDS011;14495;48.116;11.676;2022-09-01T08:16:12;8.23;;;5.75;;
26936;SDS011;14495;48.116;11.676;2022-09-01T08:18:38;7.35;;;5.43;;
26936;SDS011;14495;48.116;11.676;2022-09-01T08:21:05;7.65;;;5.88;;
26936;SDS011;14495;48.116;11.676;2022-09-01T08:23:32;7.22;;;5.57;;
26936;SDS011;14495;48.116;11.676;2022-09-01T08:25:57;7.35;;;5.78;;
26936;SDS011;14495;48.116;11.676;2022-09-01T08:28:28;7.50;;;5.50;;
26936;SDS011;14495;48.116;11.676;2022-09-01T08:30:54;5.63;;;4.35;;
26936;SDS011;14495;48.116;11.676;2022-09-01T08:33:20;6.60;;;5.18;;
26936;SDS011;14495;48.116;11.676;2022-09-01T08:35:46;5.65;;;4.28;;
26936;SDS011;14495;48.116;11.676;2022-09-01T08:38:12;6.95;;;4.95;;
26936;SDS011;14495;48.116;11.676;2022-09-01T08:40:39;6.32;;;4.88;;
26936;SDS011;14495;48.116;11.676;2022-09-01T08:43:09;7.90;;;5.22;;
26936;SDS011;14495;48.116;11.676;2022-09-01T08:48:36;6.93;;;5.18;;
26936;SDS011;14495;48.116;11.676;2022-09-01T08:51:14;6.32;;;4.93;;
26936;SDS011;14495;48.116;11.676;2022-09-01T08:56:50;6.28;;;4.35;;
26936;SDS011;14495;48.116;11.676;2022-09-01T08:59:18;5.82;;;4.82;;
26936;SDS011;14495;48.116;11.676;2022-09-01T09:01:56;6.15;;;4.93;;
26936;SDS011;14495;48.116;11.676;2022-09-01T09:04:34;6.40;;;5.13;;
26936;SDS011;14495;48.116;11.676;2022-09-01T09:07:09;5.57;;;4.75;;
26936;SDS011;14495;48.116;11.676;2022-09-01T09:09:49;5.85;;;4.70;;
26936;SDS011;14495;48.116;11.676;2022-09-01T09:12:29;5.18;;;4.30;;
26936;SDS011;14495;48.116;11.676;2022-09-01T09:15:31;5.40;;;3.95;;
26936;SDS011;14495;48.116;11.676;2022-09-01T09:20:56;4.97;;;4.10;;
26936;SDS011;14495;48.116;11.676;2022-09-01T09:23:30;5.82;;;4.60;;
26936;SDS011;14495;48.116;11.676;2022-09-01T09:26:00;4.60;;;4.13;;
26936;SDS011;14495;48.116;11.676;2022-09-01T09:28:26;4.38;;;3.85;;
26936;SDS011;14495;48.116;11.676;2022-09-01T09:31:23;5.85;;;3.90;;
26936;SDS011;14495;48.116;11.676;2022-09-01T09:33:49;5.78;;;3.95;;
26936;SDS011;14495;48.116;11.676;2022-09-01T09:36:16;3.92;;;3.47;;
26936;SDS011;14495;48.116;11.676;2022-09-01T09:38:43;5.07;;;3.70;;
26936;SDS011;14495;48.116;11.676;2022-09-01T09:43:37;4.57;;;3.30;;
26936;SDS011;14495;48.116;11.676;2022-09-01T09:46:20;4.30;;;3.58;;
26936;SDS011;14495;48.116;11.676;2022-09-01T09:49:05;8.07;;;3.30;;
26936;SDS011;14495;48.116;11.676;2022-09-01T09:51:40;3.83;;;3.00;;
26936;SDS011;14495;48.116;11.676;2022-09-01T09:56:43;4.20;;;2.97;;
26936;SDS011;14495;48.116;11.676;2022-09-01T09:59:23;3.20;;;2.90;;
26936;SDS011;14495;48.116;11.676;2022-09-01T10:01:56;3.45;;;2.92;;
26936;SDS011;14495;48.116;11.676;2022-09-01T10:04:30;4.57;;;3.35;;
26936;SDS011;14495;48.116;11.676;2022-09-01T10:06:58;3.40;;;2.25;;
26936;SDS011;14495;48.116;11.676;2022-09-01T10:11:56;3.60;;;2.70;;
26936;SDS011;14495;48.116;11.676;2022-09-01T10:14:24;3.58;;;2.58;;
26936;SDS011;14495;48.116;11.676;2022-09-01T10:16:59;3.72;;;2.70;;
26936;SDS011;14495;48.116;11.676;2022-09-01T10:19:29;3.33;;;2.15;;
26936;SDS011;14495;48.116;11.676;2022-09-01T10:21:57;2.90;;;2.25;;
26936;SDS011;14495;48.116;11.676;2022-09-01T10:24:30;5.75;;;2.58;;
26936;SDS011;14495;48.116;11.676;2022-09-01T10:27:09;2.80;;;2.17;;
26936;SDS011;14495;48.116;11.676;2022-09-01T10:32:30;5.43;;;2.65;;
26936;SDS011;14495;48.116;11.676;2022-09-01T10:34:58;3.38;;;2.67;;
26936;SDS011;14495;48.116;11.676;2022-09-01T10:37:25;3.05;;;2.67;;
26936;SDS011;14495;48.116;11.676;2022-09-01T10:42:35;3.72;;;2.20;;
26936;SDS011;14495;48.116;11.676;2022-09-01T10:45:01;3.47;;;2.97;;
26936;SDS011;14495;48.116;11.676;2022-09-01T10:47:27;3.13;;;2.15;;
26936;SDS011;14495;48.116;11.676;2022-09-01T10:53:07;4.15;;;2.70;;
26936;SDS011;14495;48.116;11.676;2022-09-01T10:55:17;2.10;;;1.58;;
26936;SDS011;14495;48.116;11.676;2022-09-01T11:00:43;3.72;;;2.28;;
26936;SDS011;14495;48.116;11.676;2022-09-01T11:13:44;3.25;;;1.98;;
26936;SDS011;14495;48.116;11.676;2022-09-01T11:18:55;2.20;;;2.00;;
26936;SDS011;14495;48.116;11.676;2022-09-01T11:21:45;2.20;;;1.50;;
26936;SDS011;14495;48.116;11.676;2022-09-01T11:25:12;1.60;;;1.48;;
26936;SDS011;14495;48.116;11.676;2022-09-01T11:27:07;1.40;;;1.27;;
26936;SDS011;14495;48.116;11.676;2022-09-01T11:32:23;1.38;;;1.15;;
26936;SDS011;14495;48.116;11.676;2022-09-01T11:34:51;1.70;;;1.30;;
26936;SDS011;14495;48.116;11.676;2022-09-01T11:37:22;1.38;;;1.25;;
26936;SDS011;14495;48.116;11.676;2022-09-01T11:39:50;1.70;;;1.52;;
26936;SDS011;14495;48.116;11.676;2022-09-01T11:47:30;1.50;;;1.25;;
26936;SDS011;14495;48.116;11.676;2022-09-01T11:50:07;1.70;;;1.30;;
26936;SDS011;14495;48.116;11.676;2022-09-01T11:52:43;1.77;;;1.30;;
26936;SDS011;14495;48.116;11.676;2022-09-01T11:55:28;3.00;;;1.30;;
26936;SDS011;14495;48.116;11.676;2022-09-01T11:57:58;3.17;;;1.20;;
26936;SDS011;14495;48.116;11.676;2022-09-01T12:00:31;1.38;;;1.15;;
26936;SDS011;14495;48.116;11.676;2022-09-01T12:03:02;1.40;;;1.20;;
26936;SDS011;14495;48.116;11.676;2022-09-01T12:05:47;2.47;;;1.17;;
26936;SDS011;14495;48.116;11.676;2022-09-01T12:08:18;1.55;;;1.30;;
26936;SDS011;14495;48.116;11.676;2022-09-01T12:10:45;2.13;;;1.10;;
26936;SDS011;14495;48.116;11.676;2022-09-01T12:13:16;1.40;;;1.13;;
26936;SDS011;14495;48.116;11.676;2022-09-01T12:15:51;1.90;;;1.20;;
26936;SDS011;14495;48.116;11.676;2022-09-01T12:18:19;2.08;;;1.27;;
26936;SDS011;14495;48.116;11.676;2022-09-01T12:20:48;1.42;;;1.23;;
26936;SDS011;14495;48.116;11.676;2022-09-01T12:23:17;1.70;;;1.40;;
26936;SDS011;14495;48.116;11.676;2022-09-01T12:25:49;1.75;;;1.50;;
26936;SDS011;14495;48.116;11.676;2022-09-01T12:28:14;1.90;;;1.42;;
26936;SDS011;14495;48.116;11.676;2022-09-01T12:30:40;2.90;;;1.50;;
26936;SDS011;14495;48.116;11.676;2022-09-01T12:33:09;1.75;;;1.35;;
26936;SDS011;14495;48.116;11.676;2022-09-01T12:35:37;1.20;;;1.10;;
26936;SDS011;14495;48.116;11.676;2022-09-01T12:41:00;1.83;;;1.30;;
26936;SDS011;14495;48.116;11.676;2022-09-01T12:43:27;1.25;;;1.00;;
26936;SDS011;14495;48.116;11.676;2022-09-01T12:45:54;1.75;;;1.40;;
26936;SDS011;14495;48.116;11.676;2022-09-01T12:48:27;2.20;;;1.30;;
26936;SDS011;14495;48.116;11.676;2022-09-01T12:50:58;3.17;;;1.10;;
26936;SDS011;14495;48.116;11.676;2022-09-01T12:55:54;1.50;;;1.13;;
26936;SDS011;14495;48.116;11.676;2022-09-01T12:58:26;3.50;;;1.50;;
26936;SDS011;14495;48.116;11.676;2022-09-01T13:00:57;5.65;;;1.40;;
26936;SDS011;14495;48.116;11.676;2022-09-01T13:03:29;1.90;;;1.42;;
26936;SDS011;14495;48.116;11.676;2022-09-01T13:05:56;2.08;;;1.70;;
26936;SDS011;14495;48.116;11.676;2022-09-01T13:08:27;2.47;;;1.48;;
26936;SDS011;14495;48.116;11.676;2022-09-01T13:11:01;1.75;;;1.58;;
26936;SDS011;14495;48.116;11.676;2022-09-01T13:13:29;2.20;;;1.30;;
26936;SDS011;14495;48.116;11.676;2022-09-01T13:15:56;2.22;;;1.27;;
26936;SDS011;14495;48.116;11.676;2022-09-01T13:18:26;2.00;;;1.13;;
26936;SDS011;14495;48.116;11.676;2022-09-01T13:20:52;1.58;;;1.40;;
26936;SDS011;14495;48.116;11.676;2022-09-01T13:23:18;1.25;;;0.90;;
26936;SDS011;14495;48.116;11.676;2022-09-01T13:25:44;1.60;;;1.20;;
26936;SDS011;14495;48.116;11.676;2022-09-01T13:28:11;1.98;;;1.00;;
26936;SDS011;14495;48.116;11.676;2022-09-01T13:30:37;1.10;;;0.98;;
26936;SDS011;14495;48.116;11.676;2022-09-01T13:33:04;1.35;;;0.90;;
26936;SDS011;14495;48.116;11.676;2022-09-01T13:35:29;1.73;;;1.40;;
26936;SDS011;14495;48.116;11.676;2022-09-01T13:37:55;1.17;;;1.08;;
26936;SDS011;14495;48.116;11.676;2022-09-01T13:40:21;2.15;;;1.20;;
26936;SDS011;14495;48.116;11.676;2022-09-01T13:42:47;1.42;;;1.25;;
26936;SDS011;14495;48.116;11.676;2022-09-01T13:45:14;1.52;;;1.20;;
26936;SDS011;14495;48.116;11.676;2022-09-01T13:47:43;1.10;;;1.00;;
26936;SDS011;14495;48.116;11.676;2022-09-01T13:50:10;1.25;;;1.15;;
26936;SDS011;14495;48.116;11.676;2022-09-01T13:52:41;1.33;;;1.10;;
26936;SDS011;14495;48.116;11.676;2022-09-01T13:55:10;1.70;;;1.00;;
26936;SDS011;14495;48.116;11.676;2022-09-01T13:57:37;1.05;;;0.95;;
26936;SDS011;14495;48.116;11.676;2022-09-01T14:00:06;1.60;;;1.20;;
26936;SDS011;14495;48.116;11.676;2022-09-01T14:02:39;1.60;;;1.30;;
26936;SDS011;14495;48.116;11.676;2022-09-01T14:05:07;2.53;;;1.50;;
26936;SDS011;14495;48.116;11.676;2022-09-01T14:07:33;1.63;;;1.27;;
26936;SDS011;14495;48.116;11.676;2022-09-01T14:09:59;1.33;;;1.10;;
26936;SDS011;14495;48.116;11.676;2022-09-01T14:12:25;2.70;;;1.67;;
26936;SDS011;14495;48.116;11.676;2022-09-01T14:14:51;1.65;;;1.40;;
26936;SDS011;14495;48.116;11.676;2022-09-01T14:17:16;2.60;;;1.48;;
26936;SDS011;14495;48.116;11.676;2022-09-01T14:19:41;1.55;;;1.40;;
26936;SDS011;14495;48.116;11.676;2022-09-01T14:22:07;2.15;;;1.33;;
26936;SDS011;14495;48.116;11.676;2022-09-01T14:24:35;2.03;;;1.30;;
26936;SDS011;14495;48.116;11.676;2022-09-01T14:27:02;1.95;;;1.30;;
26936;SDS011;14495;48.116;11.676;2022-09-01T14:29:28;1.98;;;1.35;;
26936;SDS011;14495;48.116;11.676;2022-09-01T14:31:53;1.70;;;1.20;;
26936;SDS011;14495;48.116;11.676;2022-09-01T14:34:21;1.40;;;1.02;;
26936;SDS011;14495;48.116;11.676;2022-09-01T14:36:48;1.83;;;0.93;;
26936;SDS011;14495;48.116;11.676;2022-09-01T14:39:14;1.50;;;1.30;;
26936;SDS011;14495;48.116;11.676;2022-09-01T14:41:39;1.30;;;1.13;;
26936;SDS011;14495;48.116;11.676;2022-09-01T14:44:05;1.38;;;1.10;;
26936;SDS011;14495;48.116;11.676;2022-09-01T14:46:30;1.20;;;1.10;;
26936;SDS011;14495;48.116;11.676;2022-09-01T14:48:58;1.55;;;1.08;;
26936;SDS011;14495;48.116;11.676;2022-09-01T14:51:26;1.10;;;0.98;;
26936;SDS011;14495;48.116;11.676;2022-09-01T14:53:53;1.92;;;1.00;;
26936;SDS011;14495;48.116;11.676;2022-09-01T14:56:19;1.27;;;1.17;;
26936;SDS011;14495;48.116;11.676;2022-09-01T14:58:45;1.10;;;1.00;;
26936;SDS011;14495;48.116;11.676;2022-09-01T15:01:13;2.38;;;1.52;;
26936;SDS011;14495;48.116;11.676;2022-09-01T15:03:40;1.20;;;1.10;;
26936;SDS011;14495;48.116;11.676;2022-09-01T15:06:06;1.38;;;1.23;;
26936;SDS011;14495;48.116;11.676;2022-09-01T15:08:32;1.48;;;1.10;;
26936;SDS011;14495;48.116;11.676;2022-09-01T15:10:57;1.52;;;1.10;;
26936;SDS011;14495;48.116;11.676;2022-09-01T15:13:25;1.67;;;1.40;;
26936;SDS011;14495;48.116;11.676;2022-09-01T15:15:50;1.67;;;1.00;;
26936;SDS011;14495;48.116;11.676;2022-09-01T15:18:17;2.30;;;1.20;;
26936;SDS011;14495;48.116;11.676;2022-09-01T15:20:42;1.83;;;1.48;;
26936;SDS011;14495;48.116;11.676;2022-09-01T15:23:14;2.65;;;1.10;;
26936;SDS011;14495;48.116;11.676;2022-09-01T15:25:42;1.20;;;1.00;;
26936;SDS011;14495;48.116;11.676;2022-09-01T15:28:07;1.58;;;1.00;;
26936;SDS011;14495;48.116;11.676;2022-09-01T15:30:33;1.60;;;1.17;;
26936;SDS011;14495;48.116;11.676;2022-09-01T15:32:59;1.27;;;1.10;;
26936;SDS011;14495;48.116;11.676;2022-09-01T15:35:26;1.27;;;1.08;;